sensor_id;sensor_type;location;lat;lon;timestamp;temperature;humidity
44487;DHT22;30191;50.908;6.962;2022-08-26T00:00:45;25.90;97.50
44487;DHT22;30191;50.908;6.962;2022-08-26T00:03:12;25.80;97.60
44487;DHT22;30191;50.908;6.962;2022-08-26T00:05:38;25.80;97.60
44487;DHT22;30191;50.908;6.962;2022-08-26T00:08:05;25.70;97.60
44487;DHT22;30191;50.908;6.962;2022-08-26T00:10:31;25.70;98.00
44487;DHT22;30191;50.908;6.962;2022-08-26T00:12:56;25.60;98.30
44487;DHT22;30191;50.908;6.962;2022-08-26T00:15:23;25.50;98.70
44487;DHT22;30191;50.908;6.962;2022-08-26T00:17:51;25.50;99.20
44487;DHT22;30191;50.908;6.962;2022-08-26T00:20:20;25.40;99.80
44487;DHT22;30191;50.908;6.962;2022-08-26T00:22:46;25.30;99.90
44487;DHT22;30191;50.908;6.962;2022-08-26T00:25:12;25.30;99.90
44487;DHT22;30191;50.908;6.962;2022-08-26T00:27:38;25.30;99.90
44487;DHT22;30191;50.908;6.962;2022-08-26T00:30:07;25.30;99.90
44487;DHT22;30191;50.908;6.962;2022-08-26T00:32:33;25.20;99.90
44487;DHT22;30191;50.908;6.962;2022-08-26T00:34:59;25.20;99.90
44487;DHT22;30191;50.908;6.962;2022-08-26T00:37:24;25.10;99.90
44487;DHT22;30191;50.908;6.962;2022-08-26T00:39:50;25.10;99.90
44487;DHT22;30191;50.908;6.962;2022-08-26T00:42:17;25.10;99.90
44487;DHT22;30191;50.908;6.962;2022-08-26T00:44:43;25.00;99.90
44487;DHT22;30191;50.908;6.962;2022-08-26T00:47:21;25.00;99.90
44487;DHT22;30191;50.908;6.962;2022-08-26T00:49:48;25.10;99.90
44487;DHT22;30191;50.908;6.962;2022-08-26T00:52:19;25.00;99.90
44487;DHT22;30191;50.908;6.962;2022-08-26T00:55:02;25.00;99.90
44487;DHT22;30191;50.908;6.962;2022-08-26T00:57:28;24.90;99.90
44487;DHT22;30191;50.908;6.962;2022-08-26T00:59:57;24.80;99.90
44487;DHT22;30191;50.908;6.962;2022-08-26T01:02:24;24.80;99.90
44487;DHT22;30191;50.908;6.962;2022-08-26T01:04:56;24.70;99.90
44487;DHT22;30191;50.908;6.962;2022-08-26T01:07:27;24.70;99.90
44487;DHT22;30191;50.908;6.962;2022-08-26T01:09:55;24.80;99.90
44487;DHT22;30191;50.908;6.962;2022-08-26T01:12:23;24.70;99.90
44487;DHT22;30191;50.908;6.962;2022-08-26T01:14:49;24.70;99.90
44487;DHT22;30191;50.908;6.962;2022-08-26T01:17:15;24.60;99.90
44487;DHT22;30191;50.908;6.962;2022-08-26T01:19:45;24.60;99.90
44487;DHT22;30191;50.908;6.962;2022-08-26T01:22:30;24.60;99.90
44487;DHT22;30191;50.908;6.962;2022-08-26T01:24:59;24.50;99.90
44487;DHT22;30191;50.908;6.962;2022-08-26T01:27:26;24.40;99.90
44487;DHT22;30191;50.908;6.962;2022-08-26T01:29:56;24.40;99.90
44487;DHT22;30191;50.908;6.962;2022-08-26T01:32:23;24.40;99.90
44487;DHT22;30191;50.908;6.962;2022-08-26T01:34:50;24.40;99.90
44487;DHT22;30191;50.908;6.962;2022-08-26T01:37:27;24.30;99.90
44487;DHT22;30191;50.908;6.962;2022-08-26T01:39:55;24.30;99.90
44487;DHT22;30191;50.908;6.962;2022-08-26T01:42:23;24.30;99.90
44487;DHT22;30191;50.908;6.962;2022-08-26T01:47:26;24.20;99.90
44487;DHT22;30191;50.908;6.962;2022-08-26T01:49:55;24.20;99.90
44487;DHT22;30191;50.908;6.962;2022-08-26T01:52:24;24.10;99.90
44487;DHT22;30191;50.908;6.962;2022-08-26T01:54:51;24.20;99.90
44487;DHT22;30191;50.908;6.962;2022-08-26T01:57:18;24.10;99.90
44487;DHT22;30191;50.908;6.962;2022-08-26T01:59:45;24.10;99.90
44487;DHT22;30191;50.908;6.962;2022-08-26T02:02:11;24.10;99.90
44487;DHT22;30191;50.908;6.962;2022-08-26T02:04:44;24.10;99.90
44487;DHT22;30191;50.908;6.962;2022-08-26T02:07:13;24.00;99.90
44487;DHT22;30191;50.908;6.962;2022-08-26T02:09:41;24.00;99.90
44487;DHT22;30191;50.908;6.962;2022-08-26T02:12:08;23.90;99.90
44487;DHT22;30191;50.908;6.962;2022-08-26T02:14:44;23.90;99.90
44487;DHT22;30191;50.908;6.962;2022-08-26T02:17:14;23.90;99.90
44487;DHT22;30191;50.908;6.962;2022-08-26T02:19:45;23.80;99.90
44487;DHT22;30191;50.908;6.962;2022-08-26T02:22:15;23.80;99.90
44487;DHT22;30191;50.908;6.962;2022-08-26T02:24:58;23.80;99.90
44487;DHT22;30191;50.908;6.962;2022-08-26T02:27:33;23.80;99.90
44487;DHT22;30191;50.908;6.962;2022-08-26T02:30:08;23.70;99.90
44487;DHT22;30191;50.908;6.962;2022-08-26T02:32:34;23.70;99.90
44487;DHT22;30191;50.908;6.962;2022-08-26T02:35:00;23.60;99.90
44487;DHT22;30191;50.908;6.962;2022-08-26T02:37:28;23.60;99.90
44487;DHT22;30191;50.908;6.962;2022-08-26T02:39:54;23.60;99.90
44487;DHT22;30191;50.908;6.962;2022-08-26T02:42:20;23.60;99.90
44487;DHT22;30191;50.908;6.962;2022-08-26T02:44:47;23.50;99.90
44487;DHT22;30191;50.908;6.962;2022-08-26T02:47:13;23.50;99.90
44487;DHT22;30191;50.908;6.962;2022-08-26T02:49:41;23.40;99.90
44487;DHT22;30191;50.908;6.962;2022-08-26T02:52:07;23.50;99.90
44487;DHT22;30191;50.908;6.962;2022-08-26T02:54:33;23.40;99.90
44487;DHT22;30191;50.908;6.962;2022-08-26T02:56:59;23.40;99.90
44487;DHT22;30191;50.908;6.962;2022-08-26T02:59:25;23.40;99.90
44487;DHT22;30191;50.908;6.962;2022-08-26T03:01:51;23.30;99.90
44487;DHT22;30191;50.908;6.962;2022-08-26T03:04:16;23.30;99.90
44487;DHT22;30191;50.908;6.962;2022-08-26T03:06:42;23.30;99.90
44487;DHT22;30191;50.908;6.962;2022-08-26T03:09:08;23.30;99.90
44487;DHT22;30191;50.908;6.962;2022-08-26T03:11:34;23.30;99.90
44487;DHT22;30191;50.908;6.962;2022-08-26T03:14:01;23.20;99.90
44487;DHT22;30191;50.908;6.962;2022-08-26T03:16:34;23.30;99.90
44487;DHT22;30191;50.908;6.962;2022-08-26T03:19:01;23.30;99.90
44487;DHT22;30191;50.908;6.962;2022-08-26T03:21:28;23.30;99.90
44487;DHT22;30191;50.908;6.962;2022-08-26T03:23:54;23.20;99.90
44487;DHT22;30191;50.908;6.962;2022-08-26T03:26:20;23.20;99.90
44487;DHT22;30191;50.908;6.962;2022-08-26T03:28:46;23.20;99.90
44487;DHT22;30191;50.908;6.962;2022-08-26T03:31:30;23.20;99.90
44487;DHT22;30191;50.908;6.962;2022-08-26T03:33:56;23.30;99.90
44487;DHT22;30191;50.908;6.962;2022-08-26T03:36:22;23.30;99.90
44487;DHT22;30191;50.908;6.962;2022-08-26T03:38:47;23.30;99.90
44487;DHT22;30191;50.908;6.962;2022-08-26T03:41:13;23.30;99.90
44487;DHT22;30191;50.908;6.962;2022-08-26T03:43:39;23.20;99.90
44487;DHT22;30191;50.908;6.962;2022-08-26T03:46:06;23.20;99.90
44487;DHT22;30191;50.908;6.962;2022-08-26T03:48:32;23.20;99.90
44487;DHT22;30191;50.908;6.962;2022-08-26T03:50:59;23.20;99.90
44487;DHT22;30191;50.908;6.962;2022-08-26T03:53:25;23.20;99.90
44487;DHT22;30191;50.908;6.962;2022-08-26T03:55:51;23.20;99.90
44487;DHT22;30191;50.908;6.962;2022-08-26T03:58:16;23.20;99.90
44487;DHT22;30191;50.908;6.962;2022-08-26T04:00:42;23.20;99.90
44487;DHT22;30191;50.908;6.962;2022-08-26T04:03:08;23.20;99.90
44487;DHT22;30191;50.908;6.962;2022-08-26T04:05:35;23.30;99.90
44487;DHT22;30191;50.908;6.962;2022-08-26T04:08:02;23.20;99.90
44487;DHT22;30191;50.908;6.962;2022-08-26T04:10:30;23.20;99.90
44487;DHT22;30191;50.908;6.962;2022-08-26T04:12:57;23.20;99.90
44487;DHT22;30191;50.908;6.962;2022-08-26T04:15:23;23.10;99.90
44487;DHT22;30191;50.908;6.962;2022-08-26T04:17:49;23.10;99.90
44487;DHT22;30191;50.908;6.962;2022-08-26T04:20:15;23.10;99.90
44487;DHT22;30191;50.908;6.962;2022-08-26T04:22:44;23.20;99.90
44487;DHT22;30191;50.908;6.962;2022-08-26T04:25:11;23.10;99.90
44487;DHT22;30191;50.908;6.962;2022-08-26T04:27:37;23.10;99.90
44487;DHT22;30191;50.908;6.962;2022-08-26T04:30:03;23.10;99.90
44487;DHT22;30191;50.908;6.962;2022-08-26T04:32:29;23.10;99.90
44487;DHT22;30191;50.908;6.962;2022-08-26T04:34:55;23.10;99.90
44487;DHT22;30191;50.908;6.962;2022-08-26T04:37:21;23.10;99.90
44487;DHT22;30191;50.908;6.962;2022-08-26T04:39:51;23.10;99.90
44487;DHT22;30191;50.908;6.962;2022-08-26T04:42:17;23.10;99.90
44487;DHT22;30191;50.908;6.962;2022-08-26T04:44:42;23.10;99.90
44487;DHT22;30191;50.908;6.962;2022-08-26T04:47:08;23.10;99.90
44487;DHT22;30191;50.908;6.962;2022-08-26T04:49:33;23.10;99.90
44487;DHT22;30191;50.908;6.962;2022-08-26T04:51:59;23.10;99.90
44487;DHT22;30191;50.908;6.962;2022-08-26T04:54:25;23.10;99.90
44487;DHT22;30191;50.908;6.962;2022-08-26T04:56:51;23.10;99.90
44487;DHT22;30191;50.908;6.962;2022-08-26T04:59:17;23.10;99.90
44487;DHT22;30191;50.908;6.962;2022-08-26T05:01:48;23.10;99.90
44487;DHT22;30191;50.908;6.962;2022-08-26T05:04:16;23.10;99.90
44487;DHT22;30191;50.908;6.962;2022-08-26T05:06:42;23.10;99.90
44487;DHT22;30191;50.908;6.962;2022-08-26T05:09:08;23.10;99.90
44487;DHT22;30191;50.908;6.962;2022-08-26T05:11:33;23.10;99.90
44487;DHT22;30191;50.908;6.962;2022-08-26T05:14:00;23.10;99.90
44487;DHT22;30191;50.908;6.962;2022-08-26T05:16:26;23.10;99.90
44487;DHT22;30191;50.908;6.962;2022-08-26T05:18:52;23.20;99.90
44487;DHT22;30191;50.908;6.962;2022-08-26T05:21:21;23.20;99.90
44487;DHT22;30191;50.908;6.962;2022-08-26T05:23:48;23.20;99.90
44487;DHT22;30191;50.908;6.962;2022-08-26T05:26:16;23.10;99.90
44487;DHT22;30191;50.908;6.962;2022-08-26T05:28:42;23.20;99.90
44487;DHT22;30191;50.908;6.962;2022-08-26T05:31:20;23.20;99.90
44487;DHT22;30191;50.908;6.962;2022-08-26T05:33:46;23.20;99.90
44487;DHT22;30191;50.908;6.962;2022-08-26T05:36:15;23.20;99.90
44487;DHT22;30191;50.908;6.962;2022-08-26T05:38:41;23.20;99.90
44487;DHT22;30191;50.908;6.962;2022-08-26T05:43:40;23.30;99.90
44487;DHT22;30191;50.908;6.962;2022-08-26T05:46:06;23.30;99.90
44487;DHT22;30191;50.908;6.962;2022-08-26T05:48:32;23.30;99.90
44487;DHT22;30191;50.908;6.962;2022-08-26T05:51:01;23.30;99.90
44487;DHT22;30191;50.908;6.962;2022-08-26T05:53:28;23.10;99.90
44487;DHT22;30191;50.908;6.962;2022-08-26T05:55:54;22.90;99.90
44487;DHT22;30191;50.908;6.962;2022-08-26T05:58:21;22.90;99.90
44487;DHT22;30191;50.908;6.962;2022-08-26T06:01:22;22.80;99.90
44487;DHT22;30191;50.908;6.962;2022-08-26T06:03:49;22.80;99.90
44487;DHT22;30191;50.908;6.962;2022-08-26T06:06:21;22.80;99.90
44487;DHT22;30191;50.908;6.962;2022-08-26T06:08:47;22.80;99.90
44487;DHT22;30191;50.908;6.962;2022-08-26T06:11:17;22.80;99.90
44487;DHT22;30191;50.908;6.962;2022-08-26T06:13:43;22.80;99.90
44487;DHT22;30191;50.908;6.962;2022-08-26T06:16:11;22.60;99.90
44487;DHT22;30191;50.908;6.962;2022-08-26T06:18:40;22.60;99.90
44487;DHT22;30191;50.908;6.962;2022-08-26T06:21:23;22.70;99.90
44487;DHT22;30191;50.908;6.962;2022-08-26T06:23:52;22.60;99.90
44487;DHT22;30191;50.908;6.962;2022-08-26T06:26:37;22.70;99.90
44487;DHT22;30191;50.908;6.962;2022-08-26T06:29:04;22.70;99.90
44487;DHT22;30191;50.908;6.962;2022-08-26T06:31:34;22.80;99.90
44487;DHT22;30191;50.908;6.962;2022-08-26T06:34:01;22.70;99.90
44487;DHT22;30191;50.908;6.962;2022-08-26T06:36:29;22.70;99.90
44487;DHT22;30191;50.908;6.962;2022-08-26T06:38:59;22.80;99.90
44487;DHT22;30191;50.908;6.962;2022-08-26T06:41:24;22.80;99.90
44487;DHT22;30191;50.908;6.962;2022-08-26T06:43:51;22.70;99.90
44487;DHT22;30191;50.908;6.962;2022-08-26T06:46:20;22.70;99.90
44487;DHT22;30191;50.908;6.962;2022-08-26T06:48:46;22.80;99.90
44487;DHT22;30191;50.908;6.962;2022-08-26T06:51:17;22.70;99.90
44487;DHT22;30191;50.908;6.962;2022-08-26T06:53:45;22.70;99.90
44487;DHT22;30191;50.908;6.962;2022-08-26T06:56:13;22.70;99.90
44487;DHT22;30191;50.908;6.962;2022-08-26T06:58:40;22.70;99.90
44487;DHT22;30191;50.908;6.962;2022-08-26T07:01:26;22.60;99.90
44487;DHT22;30191;50.908;6.962;2022-08-26T07:03:57;22.70;99.90
44487;DHT22;30191;50.908;6.962;2022-08-26T07:06:24;22.70;99.90
44487;DHT22;30191;50.908;6.962;2022-08-26T07:08:51;22.60;99.90
44487;DHT22;30191;50.908;6.962;2022-08-26T07:11:18;22.60;99.90
44487;DHT22;30191;50.908;6.962;2022-08-26T07:13:45;22.60;99.90
44487;DHT22;30191;50.908;6.962;2022-08-26T07:16:13;22.70;99.90
44487;DHT22;30191;50.908;6.962;2022-08-26T07:18:41;22.70;99.90
44487;DHT22;30191;50.908;6.962;2022-08-26T07:21:09;22.80;99.90
44487;DHT22;30191;50.908;6.962;2022-08-26T07:23:36;22.80;99.90
44487;DHT22;30191;50.908;6.962;2022-08-26T07:26:06;22.80;99.90
44487;DHT22;30191;50.908;6.962;2022-08-26T07:28:32;22.80;99.90
44487;DHT22;30191;50.908;6.962;2022-08-26T07:31:03;22.80;99.90
44487;DHT22;30191;50.908;6.962;2022-08-26T07:33:29;22.90;99.90
44487;DHT22;30191;50.908;6.962;2022-08-26T07:35:55;22.90;99.90
44487;DHT22;30191;50.908;6.962;2022-08-26T07:38:21;22.90;99.90
44487;DHT22;30191;50.908;6.962;2022-08-26T07:40:46;23.00;99.90
44487;DHT22;30191;50.908;6.962;2022-08-26T07:43:12;23.00;99.90
44487;DHT22;30191;50.908;6.962;2022-08-26T07:45:38;23.00;99.90
44487;DHT22;30191;50.908;6.962;2022-08-26T07:48:04;23.10;99.90
44487;DHT22;30191;50.908;6.962;2022-08-26T07:50:30;23.10;99.90
44487;DHT22;30191;50.908;6.962;2022-08-26T07:52:56;23.00;99.90
44487;DHT22;30191;50.908;6.962;2022-08-26T07:55:22;23.00;99.90
44487;DHT22;30191;50.908;6.962;2022-08-26T07:57:48;23.10;99.90
44487;DHT22;30191;50.908;6.962;2022-08-26T08:00:15;23.10;99.90
44487;DHT22;30191;50.908;6.962;2022-08-26T08:02:42;23.00;99.90
44487;DHT22;30191;50.908;6.962;2022-08-26T08:05:13;23.00;99.90
44487;DHT22;30191;50.908;6.962;2022-08-26T08:07:41;22.90;99.90
44487;DHT22;30191;50.908;6.962;2022-08-26T08:10:13;22.80;99.90
44487;DHT22;30191;50.908;6.962;2022-08-26T08:12:39;22.80;99.90
44487;DHT22;30191;50.908;6.962;2022-08-26T08:15:06;22.60;99.90
44487;DHT22;30191;50.908;6.962;2022-08-26T08:17:32;22.70;99.90
44487;DHT22;30191;50.908;6.962;2022-08-26T08:19:59;22.70;99.90
44487;DHT22;30191;50.908;6.962;2022-08-26T08:22:26;22.60;99.90
44487;DHT22;30191;50.908;6.962;2022-08-26T08:24:52;22.60;99.90
44487;DHT22;30191;50.908;6.962;2022-08-26T08:27:18;22.60;99.90
44487;DHT22;30191;50.908;6.962;2022-08-26T08:29:44;22.60;99.90
44487;DHT22;30191;50.908;6.962;2022-08-26T08:32:11;22.60;99.90
44487;DHT22;30191;50.908;6.962;2022-08-26T08:34:38;22.60;99.90
44487;DHT22;30191;50.908;6.962;2022-08-26T08:37:05;22.50;99.90
44487;DHT22;30191;50.908;6.962;2022-08-26T08:39:31;22.50;99.90
44487;DHT22;30191;50.908;6.962;2022-08-26T08:44:30;22.50;99.90
44487;DHT22;30191;50.908;6.962;2022-08-26T08:47:04;22.50;99.90
44487;DHT22;30191;50.908;6.962;2022-08-26T08:49:36;22.60;99.90
44487;DHT22;30191;50.908;6.962;2022-08-26T08:52:25;22.60;99.90
44487;DHT22;30191;50.908;6.962;2022-08-26T08:54:53;22.60;99.90
44487;DHT22;30191;50.908;6.962;2022-08-26T09:00:16;22.60;99.90
44487;DHT22;30191;50.908;6.962;2022-08-26T09:05:24;22.60;99.90
44487;DHT22;30191;50.908;6.962;2022-08-26T09:08:03;22.70;99.90
44487;DHT22;30191;50.908;6.962;2022-08-26T09:10:43;22.70;99.90
44487;DHT22;30191;50.908;6.962;2022-08-26T09:13:17;22.70;99.90
44487;DHT22;30191;50.908;6.962;2022-08-26T09:21:22;22.80;99.90
44487;DHT22;30191;50.908;6.962;2022-08-26T09:23:49;22.90;99.90
44487;DHT22;30191;50.908;6.962;2022-08-26T09:29:05;22.90;99.90
44487;DHT22;30191;50.908;6.962;2022-08-26T09:31:37;22.90;99.90
44487;DHT22;30191;50.908;6.962;2022-08-26T09:34:19;22.90;99.90
44487;DHT22;30191;50.908;6.962;2022-08-26T09:36:49;22.90;99.90
44487;DHT22;30191;50.908;6.962;2022-08-26T09:39:36;23.00;99.90
44487;DHT22;30191;50.908;6.962;2022-08-26T09:42:04;22.90;99.90
44487;DHT22;30191;50.908;6.962;2022-08-26T09:44:30;22.90;99.90
44487;DHT22;30191;50.908;6.962;2022-08-26T09:47:00;22.90;99.90
44487;DHT22;30191;50.908;6.962;2022-08-26T09:49:30;22.90;99.90
44487;DHT22;30191;50.908;6.962;2022-08-26T09:54:32;22.90;99.90
44487;DHT22;30191;50.908;6.962;2022-08-26T09:59:42;22.90;99.90
44487;DHT22;30191;50.908;6.962;2022-08-26T10:02:23;23.00;99.90
44487;DHT22;30191;50.908;6.962;2022-08-26T10:04:53;23.00;99.90
44487;DHT22;30191;50.908;6.962;2022-08-26T10:10:12;23.00;99.90
44487;DHT22;30191;50.908;6.962;2022-08-26T10:12:45;23.10;99.90
44487;DHT22;30191;50.908;6.962;2022-08-26T10:15:13;23.10;99.90
44487;DHT22;30191;50.908;6.962;2022-08-26T10:17:44;23.20;99.90
44487;DHT22;30191;50.908;6.962;2022-08-26T10:25:37;23.00;99.90
44487;DHT22;30191;50.908;6.962;2022-08-26T10:28:31;23.00;99.90
44487;DHT22;30191;50.908;6.962;2022-08-26T10:31:28;23.10;99.90
44487;DHT22;30191;50.908;6.962;2022-08-26T10:33:53;23.00;99.90
44487;DHT22;30191;50.908;6.962;2022-08-26T10:36:21;23.00;99.90
44487;DHT22;30191;50.908;6.962;2022-08-26T10:39:11;23.00;99.90
44487;DHT22;30191;50.908;6.962;2022-08-26T10:41:40;23.00;99.90
44487;DHT22;30191;50.908;6.962;2022-08-26T10:44:09;23.00;99.90
44487;DHT22;30191;50.908;6.962;2022-08-26T10:46:46;23.10;99.90
44487;DHT22;30191;50.908;6.962;2022-08-26T10:49:15;23.10;99.90
44487;DHT22;30191;50.908;6.962;2022-08-26T10:51:59;23.00;99.90
44487;DHT22;30191;50.908;6.962;2022-08-26T11:07:46;23.50;99.90
44487;DHT22;30191;50.908;6.962;2022-08-26T11:22:51;24.20;99.90
44487;DHT22;30191;50.908;6.962;2022-08-26T11:25:23;24.20;99.90
44487;DHT22;30191;50.908;6.962;2022-08-26T11:32:49;24.10;99.90
44487;DHT22;30191;50.908;6.962;2022-08-26T11:40:38;24.40;99.90
44487;DHT22;30191;50.908;6.962;2022-08-26T11:48:28;24.60;99.90
44487;DHT22;30191;50.908;6.962;2022-08-26T11:50:57;24.60;99.90
44487;DHT22;30191;50.908;6.962;2022-08-26T11:53:23;24.70;99.90
44487;DHT22;30191;50.908;6.962;2022-08-26T11:55:52;24.80;99.90
44487;DHT22;30191;50.908;6.962;2022-08-26T11:58:19;24.80;99.90
44487;DHT22;30191;50.908;6.962;2022-08-26T12:00:50;24.90;99.90
44487;DHT22;30191;50.908;6.962;2022-08-26T12:03:21;24.90;99.90
44487;DHT22;30191;50.908;6.962;2022-08-26T12:05:50;24.90;99.90
44487;DHT22;30191;50.908;6.962;2022-08-26T12:08:19;24.80;99.90
44487;DHT22;30191;50.908;6.962;2022-08-26T12:10:46;24.80;99.90
44487;DHT22;30191;50.908;6.962;2022-08-26T12:13:24;24.80;99.90
44487;DHT22;30191;50.908;6.962;2022-08-26T12:15:57;24.80;99.90
44487;DHT22;30191;50.908;6.962;2022-08-26T12:18:30;24.70;99.90
44487;DHT22;30191;50.908;6.962;2022-08-26T12:20:58;24.60;99.90
44487;DHT22;30191;50.908;6.962;2022-08-26T12:29:07;24.20;99.90
44487;DHT22;30191;50.908;6.962;2022-08-26T12:31:38;24.10;99.90
44487;DHT22;30191;50.908;6.962;2022-08-26T12:34:10;24.00;99.90
44487;DHT22;30191;50.908;6.962;2022-08-26T12:36:42;24.00;99.90
44487;DHT22;30191;50.908;6.962;2022-08-26T12:39:13;24.10;99.90
44487;DHT22;30191;50.908;6.962;2022-08-26T12:44:06;24.10;99.90
44487;DHT22;30191;50.908;6.962;2022-08-26T12:46:32;24.10;99.90
44487;DHT22;30191;50.908;6.962;2022-08-26T12:48:58;24.10;99.90
44487;DHT22;30191;50.908;6.962;2022-08-26T12:51:30;24.20;99.90
44487;DHT22;30191;50.908;6.962;2022-08-26T12:53:57;24.30;99.90
44487;DHT22;30191;50.908;6.962;2022-08-26T12:59:20;24.30;99.90
44487;DHT22;30191;50.908;6.962;2022-08-26T13:01:46;24.30;99.90
44487;DHT22;30191;50.908;6.962;2022-08-26T13:07:22;24.30;99.90
44487;DHT22;30191;50.908;6.962;2022-08-26T13:09:53;24.20;99.90
44487;DHT22;30191;50.908;6.962;2022-08-26T13:12:25;24.20;99.90
44487;DHT22;30191;50.908;6.962;2022-08-26T13:14:51;24.20;99.90
44487;DHT22;30191;50.908;6.962;2022-08-26T13:17:18;24.20;99.90
44487;DHT22;30191;50.908;6.962;2022-08-26T13:19:43;24.20;99.90
44487;DHT22;30191;50.908;6.962;2022-08-26T13:22:11;24.10;99.90
44487;DHT22;30191;50.908;6.962;2022-08-26T13:24:40;24.10;99.90
44487;DHT22;30191;50.908;6.962;2022-08-26T13:27:08;24.00;99.90
44487;DHT22;30191;50.908;6.962;2022-08-26T13:29:34;24.00;99.90
44487;DHT22;30191;50.908;6.962;2022-08-26T13:32:00;24.00;99.90
44487;DHT22;30191;50.908;6.962;2022-08-26T13:34:29;24.00;99.90
44487;DHT22;30191;50.908;6.962;2022-08-26T13:36:55;24.00;99.90
44487;DHT22;30191;50.908;6.962;2022-08-26T13:39:22;24.00;99.90
44487;DHT22;30191;50.908;6.962;2022-08-26T13:41:48;24.10;99.90
44487;DHT22;30191;50.908;6.962;2022-08-26T13:44:14;24.10;99.90
44487;DHT22;30191;50.908;6.962;2022-08-26T13:46:40;24.20;99.90
44487;DHT22;30191;50.908;6.962;2022-08-26T13:49:06;24.20;99.90
44487;DHT22;30191;50.908;6.962;2022-08-26T13:51:32;24.10;99.90
44487;DHT22;30191;50.908;6.962;2022-08-26T13:53:59;24.20;99.90
44487;DHT22;30191;50.908;6.962;2022-08-26T13:56:26;24.30;99.90
44487;DHT22;30191;50.908;6.962;2022-08-26T13:58:54;24.40;99.90
44487;DHT22;30191;50.908;6.962;2022-08-26T14:01:21;24.40;99.90
44487;DHT22;30191;50.908;6.962;2022-08-26T14:03:47;24.40;99.90
44487;DHT22;30191;50.908;6.962;2022-08-26T14:06:14;24.40;99.90
44487;DHT22;30191;50.908;6.962;2022-08-26T14:08:40;24.40;99.90
44487;DHT22;30191;50.908;6.962;2022-08-26T14:11:06;24.30;99.90
44487;DHT22;30191;50.908;6.962;2022-08-26T14:13:32;24.40;99.90
44487;DHT22;30191;50.908;6.962;2022-08-26T14:15:59;24.30;99.90
44487;DHT22;30191;50.908;6.962;2022-08-26T14:18:33;24.30;99.90
44487;DHT22;30191;50.908;6.962;2022-08-26T14:20:59;24.10;99.90
44487;DHT22;30191;50.908;6.962;2022-08-26T14:23:25;24.00;99.90
44487;DHT22;30191;50.908;6.962;2022-08-26T14:25:51;23.90;99.90
44487;DHT22;30191;50.908;6.962;2022-08-26T14:28:17;24.00;99.90
44487;DHT22;30191;50.908;6.962;2022-08-26T14:30:46;23.90;99.90
44487;DHT22;30191;50.908;6.962;2022-08-26T14:33:13;23.90;99.90
44487;DHT22;30191;50.908;6.962;2022-08-26T14:35:41;23.90;99.90
44487;DHT22;30191;50.908;6.962;2022-08-26T14:38:06;24.00;99.90
44487;DHT22;30191;50.908;6.962;2022-08-26T14:40:32;24.00;99.90
44487;DHT22;30191;50.908;6.962;2022-08-26T14:42:59;24.00;99.90
44487;DHT22;30191;50.908;6.962;2022-08-26T14:45:26;24.10;99.90
44487;DHT22;30191;50.908;6.962;2022-08-26T14:47:53;24.10;99.90
44487;DHT22;30191;50.908;6.962;2022-08-26T14:50:23;24.20;99.90
44487;DHT22;30191;50.908;6.962;2022-08-26T14:52:49;24.20;99.90
44487;DHT22;30191;50.908;6.962;2022-08-26T14:55:36;24.20;99.90
44487;DHT22;30191;50.908;6.962;2022-08-26T14:58:02;24.20;99.90
44487;DHT22;30191;50.908;6.962;2022-08-26T15:00:29;24.40;99.90
44487;DHT22;30191;50.908;6.962;2022-08-26T15:02:55;24.60;99.90
44487;DHT22;30191;50.908;6.962;2022-08-26T15:05:20;24.70;99.90
44487;DHT22;30191;50.908;6.962;2022-08-26T15:07:47;24.80;99.90
44487;DHT22;30191;50.908;6.962;2022-08-26T15:10:14;25.00;99.90
44487;DHT22;30191;50.908;6.962;2022-08-26T15:12:41;25.70;99.90
44487;DHT22;30191;50.908;6.962;2022-08-26T15:15:08;26.60;99.90
44487;DHT22;30191;50.908;6.962;2022-08-26T15:17:35;27.20;99.90
44487;DHT22;30191;50.908;6.962;2022-08-26T15:20:02;27.10;99.90
44487;DHT22;30191;50.908;6.962;2022-08-26T15:22:28;26.70;99.90
44487;DHT22;30191;50.908;6.962;2022-08-26T15:24:55;26.20;99.90
44487;DHT22;30191;50.908;6.962;2022-08-26T15:27:20;25.80;99.90
44487;DHT22;30191;50.908;6.962;2022-08-26T15:29:46;25.40;99.90
44487;DHT22;30191;50.908;6.962;2022-08-26T15:32:12;25.10;99.90
44487;DHT22;30191;50.908;6.962;2022-08-26T15:34:37;24.90;99.90
44487;DHT22;30191;50.908;6.962;2022-08-26T15:37:03;24.80;99.90
44487;DHT22;30191;50.908;6.962;2022-08-26T15:39:30;24.60;99.90
44487;DHT22;30191;50.908;6.962;2022-08-26T15:41:57;24.50;99.90
44487;DHT22;30191;50.908;6.962;2022-08-26T15:44:25;24.50;99.90
44487;DHT22;30191;50.908;6.962;2022-08-26T15:46:51;24.50;99.90
44487;DHT22;30191;50.908;6.962;2022-08-26T15:49:18;24.50;99.90
44487;DHT22;30191;50.908;6.962;2022-08-26T15:51:44;24.30;99.90
44487;DHT22;30191;50.908;6.962;2022-08-26T15:54:11;24.30;99.90
44487;DHT22;30191;50.908;6.962;2022-08-26T15:56:37;24.20;99.90
44487;DHT22;30191;50.908;6.962;2022-08-26T15:59:04;24.20;99.90
44487;DHT22;30191;50.908;6.962;2022-08-26T16:01:32;24.20;99.90
44487;DHT22;30191;50.908;6.962;2022-08-26T16:03:58;24.10;99.90
44487;DHT22;30191;50.908;6.962;2022-08-26T16:06:27;24.10;99.90
44487;DHT22;30191;50.908;6.962;2022-08-26T16:08:53;24.10;99.90
44487;DHT22;30191;50.908;6.962;2022-08-26T16:11:20;24.10;99.90
44487;DHT22;30191;50.908;6.962;2022-08-26T16:13:47;24.00;99.90
44487;DHT22;30191;50.908;6.962;2022-08-26T16:16:13;24.00;99.90
44487;DHT22;30191;50.908;6.962;2022-08-26T16:18:39;23.90;99.90
44487;DHT22;30191;50.908;6.962;2022-08-26T16:21:05;24.00;99.90
44487;DHT22;30191;50.908;6.962;2022-08-26T16:23:32;24.00;99.90
44487;DHT22;30191;50.908;6.962;2022-08-26T16:25:59;24.00;99.90
44487;DHT22;30191;50.908;6.962;2022-08-26T16:28:25;24.00;99.90
44487;DHT22;30191;50.908;6.962;2022-08-26T16:30:50;24.00;99.90
44487;DHT22;30191;50.908;6.962;2022-08-26T16:33:17;24.00;99.90
44487;DHT22;30191;50.908;6.962;2022-08-26T16:35:44;23.90;99.90
44487;DHT22;30191;50.908;6.962;2022-08-26T16:38:10;23.90;99.90
44487;DHT22;30191;50.908;6.962;2022-08-26T16:40:35;23.90;99.90
44487;DHT22;30191;50.908;6.962;2022-08-26T16:43:03;23.80;99.90
44487;DHT22;30191;50.908;6.962;2022-08-26T16:45:29;23.80;99.90
44487;DHT22;30191;50.908;6.962;2022-08-26T16:47:54;23.80;99.90
44487;DHT22;30191;50.908;6.962;2022-08-26T16:50:21;23.90;99.90
44487;DHT22;30191;50.908;6.962;2022-08-26T16:52:54;23.90;99.90
44487;DHT22;30191;50.908;6.962;2022-08-26T16:55:21;23.80;99.90
44487;DHT22;30191;50.908;6.962;2022-08-26T16:57:47;23.80;99.90
44487;DHT22;30191;50.908;6.962;2022-08-26T17:00:21;23.80;99.90
44487;DHT22;30191;50.908;6.962;2022-08-26T17:02:49;23.70;99.90
44487;DHT22;30191;50.908;6.962;2022-08-26T17:05:14;23.70;99.90
44487;DHT22;30191;50.908;6.962;2022-08-26T17:07:40;23.60;99.90